Time;durP1;ratioP1;P1;durP2;ratioP2;P2;SDS_P1;SDS_P2;PMS_P1;PMS_P2;Temp;Humidity;BMP_temperature;BMP_pressure;BME280_temperature;BME280_humidity;BME280_pressure;Samples;Min_cycle;Max_cycle;Signal;HPM_P1;HPM_P2
2024/03/21 00:00:52;;;;;;;1.40;1.30;;;23.40;69.60;;;;;;5013951;28;20200;-70
2024/03/21 00:03:19;;;;;;;1.30;1.20;;;23.40;69.60;;;;;;5012299;28;20938;-69
2024/03/21 00:05:44;;;;;;;1.20;1.10;;;23.30;69.70;;;;;;5014633;28;20869;-69
2024/03/21 00:08:11;;;;;;;1.23;1.10;;;23.30;69.80;;;;;;5015388;28;20454;-69
2024/03/21 00:10:37;;;;;;;1.50;1.40;;;23.30;69.90;;;;;;5016192;28;20470;-70
2024/03/21 00:13:05;;;;;;;2.07;1.50;;;23.30;70.00;;;;;;5015591;28;20980;-72
2024/03/21 00:15:32;;;;;;;1.57;1.47;;;23.20;69.90;;;;;;5016208;28;20947;-66
2024/03/21 00:18:00;;;;;;;1.67;1.57;;;23.20;70.10;;;;;;5012030;28;20494;-67
2024/03/21 00:20:26;;;;;;;1.27;1.10;;;23.30;70.30;;;;;;5014361;28;20940;-68
2024/03/21 00:22:53;;;;;;;2.43;1.47;;;23.10;70.20;;;;;;5014357;28;20461;-70
2024/03/21 00:25:19;;;;;;;1.33;1.17;;;23.10;70.20;;;;;;5011868;28;20226;-71
2024/03/21 00:27:46;;;;;;;1.60;1.20;;;23.10;70.30;;;;;;5013243;28;20453;-70
2024/03/21 00:30:13;;;;;;;1.20;1.00;;;23.00;70.40;;;;;;5015721;28;20964;-68
2024/03/21 00:32:41;;;;;;;1.60;1.40;;;23.00;70.60;;;;;;5006818;28;20451;-69
2024/03/21 00:35:07;;;;;;;1.33;1.23;;;22.90;70.60;;;;;;5009574;28;20560;-68
2024/03/21 00:37:34;;;;;;;1.40;1.10;;;22.90;70.80;;;;;;5011130;28;20443;-69
2024/03/21 00:40:00;;;;;;;2.33;1.30;;;22.80;70.70;;;;;;5009500;28;21010;-69
2024/03/21 00:42:26;;;;;;;1.73;1.43;;;22.80;70.80;;;;;;5009524;28;20462;-71
2024/03/21 00:44:53;;;;;;;1.30;1.20;;;22.70;70.90;;;;;;5010426;28;20204;-68
2024/03/21 00:47:20;;;;;;;1.20;1.10;;;22.70;71.40;;;;;;5011079;28;20458;-69
2024/03/21 00:49:47;;;;;;;2.20;1.50;;;22.60;72.80;;;;;;5014181;28;20779;-68
2024/03/21 00:52:14;;;;;;;1.30;1.20;;;22.60;77.50;;;;;;5010257;28;21474;-69
2024/03/21 00:54:41;;;;;;;1.37;1.17;;;22.50;78.70;;;;;;5010645;28;20450;-70
2024/03/21 00:57:08;;;;;;;1.37;1.20;;;22.40;78.90;;;;;;5009271;28;20954;-67
2024/03/21 00:59:34;;;;;;;1.50;1.40;;;22.50;77.10;;;;;;5008963;28;21189;-70
2024/03/21 01:02:00;;;;;;;1.20;1.00;;;22.40;73.80;;;;;;5005711;28;20454;-69
2024/03/21 01:04:26;;;;;;;1.83;1.50;;;22.40;72.20;;;;;;5011267;28;20619;-68
2024/03/21 01:06:54;;;;;;;1.20;1.10;;;22.40;71.80;;;;;;5012205;28;20442;-65
2024/03/21 01:09:20;;;;;;;1.60;1.50;;;22.40;71.80;;;;;;5013902;28;20282;-71
2024/03/21 01:11:47;;;;;;;1.20;1.10;;;22.50;77.20;;;;;;5012376;28;21007;-67
2024/03/21 01:14:12;;;;;;;1.30;1.17;;;22.40;76.60;;;;;;5012527;28;20236;-67
2024/03/21 01:16:39;;;;;;;1.20;1.10;;;22.30;79.60;;;;;;5010762;28;20454;-69
2024/03/21 01:19:05;;;;;;;1.47;1.37;;;22.30;84.00;;;;;;5008761;28;20223;-66
2024/03/21 01:21:32;;;;;;;2.30;1.30;;;22.30;85.70;;;;;;5013188;28;20569;-70
2024/03/21 01:23:59;;;;;;;1.90;1.60;;;22.20;91.80;;;;;;5009052;28;20211;-72
2024/03/21 01:26:25;;;;;;;1.63;1.27;;;22.30;92.80;;;;;;5009331;28;20461;-71
2024/03/21 01:28:51;;;;;;;1.50;1.33;;;22.10;92.90;;;;;;5009490;28;20514;-68
2024/03/21 01:31:20;;;;;;;1.50;1.40;;;22.20;92.80;;;;;;5006079;28;20468;-71
2024/03/21 01:33:47;;;;;;;2.10;1.57;;;22.20;92.50;;;;;;5008377;28;20461;-67
2024/03/21 01:36:14;;;;;;;1.30;1.20;;;22.10;92.90;;;;;;5007493;28;20446;-68
2024/03/21 01:38:40;;;;;;;2.37;1.50;;;22.10;93.70;;;;;;5004848;28;20454;-68
2024/03/21 01:41:08;;;;;;;2.67;1.70;;;22.10;92.60;;;;;;5004171;28;20554;-67
2024/03/21 01:43:38;;;;;;;1.60;1.50;;;22.10;94.70;;;;;;5008436;28;20989;-68
2024/03/21 01:46:19;;;;;;;1.67;1.57;;;21.90;94.10;;;;;;5005030;28;20205;-66
2024/03/21 01:48:46;;;;;;;1.37;1.27;;;21.90;94.50;;;;;;5008122;28;20464;-64
2024/03/21 01:51:14;;;;;;;1.83;1.63;;;22.00;94.40;;;;;;5006872;28;20549;-66
2024/03/21 01:53:41;;;;;;;1.40;1.20;;;22.00;94.90;;;;;;5005206;28;21035;-66
2024/03/21 01:56:09;;;;;;;1.70;1.60;;;22.00;95.10;;;;;;5006571;28;20461;-66
2024/03/21 01:58:35;;;;;;;1.40;1.30;;;21.80;94.30;;;;;;5005474;28;20470;-66
2024/03/21 02:01:20;;;;;;;2.07;1.50;;;21.80;92.90;;;;;;5007343;28;21057;-67
2024/03/21 02:03:46;;;;;;;1.25;1.15;;;21.70;93.30;;;;;;5008328;28;20659;-70
2024/03/21 02:06:13;;;;;;;1.30;1.20;;;21.70;92.20;;;;;;5009386;28;20200;-68
2024/03/21 02:08:39;;;;;;;1.93;1.40;;;21.70;93.80;;;;;;5004051;28;20454;-70
2024/03/21 02:11:05;;;;;;;2.53;1.13;;;21.70;93.90;;;;;;5009014;28;20970;-70
2024/03/21 02:13:32;;;;;;;1.30;1.10;;;21.80;92.30;;;;;;5010158;28;20214;-65
2024/03/21 02:15:59;;;;;;;1.30;1.20;;;21.60;91.90;;;;;;5007616;28;20556;-65
2024/03/21 02:18:25;;;;;;;1.30;1.20;;;21.60;93.00;;;;;;5008382;28;21458;-67
2024/03/21 02:20:51;;;;;;;1.60;1.50;;;21.50;92.80;;;;;;5008445;28;20488;-68
2024/03/21 02:23:18;;;;;;;2.00;1.40;;;21.50;92.80;;;;;;5008592;28;20583;-68
2024/03/21 02:25:45;;;;;;;1.55;1.45;;;21.70;92.40;;;;;;5009955;28;20454;-72
2024/03/21 02:28:11;;;;;;;1.10;0.97;;;21.60;91.50;;;;;;5012323;28;20219;-69
2024/03/21 02:30:38;;;;;;;1.20;1.10;;;21.50;91.80;;;;;;5006751;28;20446;-65
2024/03/21 02:33:04;;;;;;;1.67;1.57;;;21.50;91.70;;;;;;5009569;28;20215;-67
2024/03/21 02:35:31;;;;;;;2.30;1.67;;;21.40;92.30;;;;;;5006148;28;20478;-70
2024/03/21 02:37:57;;;;;;;1.40;1.30;;;21.50;91.70;;;;;;5006704;28;20200;-71
2024/03/21 02:40:25;;;;;;;1.77;1.53;;;21.50;92.60;;;;;;5010312;28;20239;-69
2024/03/21 02:42:51;;;;;;;1.57;1.47;;;21.30;91.60;;;;;;5010490;28;20277;-70
2024/03/21 02:45:20;;;;;;;1.60;1.50;;;21.50;92.70;;;;;;5006470;28;20458;-69
2024/03/21 02:47:45;;;;;;;1.40;1.30;;;21.50;93.90;;;;;;5007212;28;20537;-66
2024/03/21 02:50:12;;;;;;;1.20;1.10;;;21.30;92.80;;;;;;5011461;28;20202;-69
2024/03/21 02:52:38;;;;;;;1.50;1.40;;;21.40;92.20;;;;;;5009600;28;20254;-69
2024/03/21 02:55:05;;;;;;;1.20;1.10;;;21.20;92.50;;;;;;5014781;28;20265;-70
2024/03/21 02:57:33;;;;;;;1.40;1.30;;;21.40;91.90;;;;;;5012234;28;20231;-68
2024/03/21 02:59:59;;;;;;;1.45;1.35;;;21.40;93.00;;;;;;5011457;28;20218;-67
2024/03/21 03:02:25;;;;;;;1.45;1.20;;;21.20;93.00;;;;;;5013094;28;20652;-68
2024/03/21 03:04:52;;;;;;;1.37;1.20;;;21.30;92.10;;;;;;5012959;28;20195;-65
2024/03/21 03:07:18;;;;;;;1.50;1.38;;;21.10;91.90;;;;;;5010920;28;20831;-67
2024/03/21 03:09:44;;;;;;;1.57;1.33;;;21.10;92.10;;;;;;5011709;28;20192;-65
2024/03/21 03:12:10;;;;;;;1.55;1.30;;;21.30;93.00;;;;;;5010457;28;20207;-65
2024/03/21 03:14:38;;;;;;;1.40;1.30;;;21.30;93.90;;;;;;5010957;28;20202;-68
2024/03/21 03:17:04;;;;;;;1.48;1.27;;;21.00;93.00;;;;;;5010416;28;20207;-70
2024/03/21 03:19:31;;;;;;;1.70;1.50;;;21.20;93.00;;;;;;5010225;28;20730;-68
2024/03/21 03:21:57;;;;;;;1.73;1.40;;;21.00;92.60;;;;;;5008919;28;20468;-72
2024/03/21 03:24:23;;;;;;;2.17;1.27;;;21.10;92.50;;;;;;5012978;28;20199;-70
2024/03/21 03:26:49;;;;;;;1.65;1.55;;;21.10;93.20;;;;;;5009167;28;20196;-68
2024/03/21 03:29:16;;;;;;;1.40;1.30;;;21.00;92.50;;;;;;5011781;28;20196;-67
2024/03/21 03:31:43;;;;;;;1.52;1.42;;;21.00;92.60;;;;;;5009282;28;20215;-65
2024/03/21 03:36:54;;;;;;;1.48;1.38;;;20.80;92.80;;;;;;5008557;28;20336;-67
2024/03/21 03:39:22;;;;;;;6.32;1.45;;;20.90;90.10;;;;;;5008157;28;20225;-67
2024/03/21 03:41:49;;;;;;;1.60;1.50;;;21.00;87.10;;;;;;5010371;28;20203;-67
2024/03/21 03:44:16;;;;;;;1.60;1.50;;;20.90;84.80;;;;;;5007503;28;20201;-67
2024/03/21 03:46:44;;;;;;;1.30;1.20;;;20.90;83.80;;;;;;5006945;28;20295;-70
2024/03/21 03:49:09;;;;;;;1.70;1.60;;;20.90;83.00;;;;;;5010610;28;20211;-69
2024/03/21 03:51:36;;;;;;;1.53;1.37;;;20.90;82.20;;;;;;5006611;28;20199;-70
2024/03/21 03:54:02;;;;;;;1.55;1.45;;;20.80;81.60;;;;;;5007163;28;20286;-68
2024/03/21 03:56:28;;;;;;;1.43;1.33;;;20.90;81.40;;;;;;5009122;28;20671;-71
2024/03/21 03:58:54;;;;;;;1.33;1.23;;;20.80;81.10;;;;;;5010443;28;20670;-69
2024/03/21 04:01:21;;;;;;;1.30;1.20;;;20.80;81.10;;;;;;5008359;28;20220;-70
2024/03/21 04:03:48;;;;;;;1.60;1.50;;;20.80;81.00;;;;;;5008503;28;20204;-70
2024/03/21 04:06:15;;;;;;;1.30;1.20;;;20.70;81.00;;;;;;5010728;28;20225;-68
2024/03/21 04:08:41;;;;;;;1.60;1.50;;;20.70;81.10;;;;;;5009669;28;20203;-68
2024/03/21 04:11:14;;;;;;;1.43;1.10;;;20.70;81.10;;;;;;5009111;28;20201;-67
2024/03/21 04:13:40;;;;;;;1.48;1.38;;;20.70;81.00;;;;;;5005576;28;20671;-68
2024/03/21 04:16:13;;;;;;;1.40;1.30;;;20.60;80.90;;;;;;5008264;28;20199;-68
2024/03/21 04:18:39;;;;;;;1.77;1.67;;;20.60;81.00;;;;;;5011260;28;20199;-69
2024/03/21 04:21:07;;;;;;;1.27;1.17;;;20.60;81.30;;;;;;5009517;28;20270;-67
2024/03/21 04:23:33;;;;;;;1.65;1.55;;;20.60;81.90;;;;;;5004739;28;20211;-67
2024/03/21 04:26:00;;;;;;;1.43;1.33;;;20.50;82.10;;;;;;5008416;28;20695;-70
2024/03/21 04:28:25;;;;;;;1.52;1.42;;;20.60;82.50;;;;;;5008518;28;20768;-68
2024/03/21 04:30:52;;;;;;;1.53;1.43;;;20.60;82.80;;;;;;5006867;28;20200;-66
2024/03/21 04:33:18;;;;;;;1.65;1.50;;;20.60;83.00;;;;;;5007328;28;20203;-70
2024/03/21 04:35:44;;;;;;;1.73;1.63;;;20.60;83.30;;;;;;5008409;28;20203;-68
2024/03/21 04:38:13;;;;;;;1.17;1.08;;;20.60;83.40;;;;;;5005479;28;21060;-69
2024/03/21 04:40:39;;;;;;;1.30;1.20;;;20.40;83.20;;;;;;5004686;28;20223;-70
2024/03/21 04:43:06;;;;;;;1.88;1.75;;;20.60;83.60;;;;;;5008348;28;20254;-66
2024/03/21 04:45:33;;;;;;;1.45;1.35;;;20.50;83.60;;;;;;5007159;28;20204;-66
2024/03/21 04:47:59;;;;;;;1.40;1.30;;;20.50;83.60;;;;;;5004509;28;20217;-68
2024/03/21 04:50:25;;;;;;;1.70;1.60;;;20.50;83.50;;;;;;5005931;28;20192;-68
2024/03/21 04:52:51;;;;;;;1.27;1.17;;;20.50;83.70;;;;;;5006032;28;20211;-69
2024/03/21 04:55:19;;;;;;;1.30;1.20;;;20.40;83.70;;;;;;5007035;28;20215;-67
2024/03/21 04:57:46;;;;;;;1.48;1.38;;;20.30;83.80;;;;;;5010358;28;20687;-66
2024/03/21 05:00:13;;;;;;;1.65;1.55;;;20.50;83.90;;;;;;5008435;28;20277;-66
2024/03/21 05:02:39;;;;;;;2.00;1.67;;;20.30;83.70;;;;;;5009963;28;20211;-66
2024/03/21 05:05:06;;;;;;;1.40;1.30;;;20.30;83.70;;;;;;5011127;28;20208;-68
2024/03/21 05:07:32;;;;;;;1.70;1.60;;;20.30;83.80;;;;;;5008764;28;20463;-67
2024/03/21 05:09:59;;;;;;;1.60;1.50;;;20.30;83.60;;;;;;5008164;28;20200;-71
2024/03/21 05:12:27;;;;;;;1.45;1.35;;;20.40;84.00;;;;;;5009571;28;20545;-68
2024/03/21 05:14:54;;;;;;;1.20;1.10;;;20.30;83.70;;;;;;5011187;28;20206;-65
2024/03/21 05:17:20;;;;;;;1.70;1.60;;;20.30;83.70;;;;;;5009653;28;20202;-66
2024/03/21 05:19:47;;;;;;;1.52;1.38;;;20.30;83.70;;;;;;5011650;28;20219;-70
2024/03/21 05:22:13;;;;;;;1.40;1.30;;;20.30;83.70;;;;;;5012290;28;20643;-67
2024/03/21 05:24:39;;;;;;;1.50;1.40;;;20.20;83.50;;;;;;5013536;28;20192;-69
2024/03/21 05:27:06;;;;;;;1.55;1.45;;;20.20;83.50;;;;;;5012667;28;20656;-67
2024/03/21 05:29:35;;;;;;;1.50;1.40;;;20.20;83.40;;;;;;5014075;28;20863;-67
2024/03/21 05:32:01;;;;;;;1.55;1.45;;;20.20;83.40;;;;;;5009532;28;20699;-68
2024/03/21 05:34:29;;;;;;;1.30;1.20;;;20.20;83.40;;;;;;5009781;28;20203;-66
2024/03/21 05:36:54;;;;;;;1.40;1.30;;;20.10;83.10;;;;;;5008257;28;20270;-69
2024/03/21 05:39:21;;;;;;;1.50;1.40;;;20.10;83.30;;;;;;5007593;28;20243;-67
2024/03/21 05:41:47;;;;;;;1.50;1.40;;;20.10;83.20;;;;;;5010272;28;20223;-69
2024/03/21 05:44:14;;;;;;;1.33;1.23;;;20.10;83.20;;;;;;5010876;28;20205;-70
2024/03/21 05:46:41;;;;;;;1.42;1.33;;;20.10;83.20;;;;;;5006978;28;20199;-71
2024/03/21 05:49:09;;;;;;;1.60;1.50;;;20.10;83.20;;;;;;5012555;28;20203;-69
2024/03/21 05:51:35;;;;;;;1.80;1.70;;;20.00;83.30;;;;;;5011379;28;20861;-71
2024/03/21 05:54:05;;;;;;;1.80;1.50;;;20.00;83.30;;;;;;5006075;28;20307;-70
2024/03/21 05:56:31;;;;;;;1.50;1.30;;;20.00;83.50;;;;;;5011876;28;20300;-70
2024/03/21 05:58:58;;;;;;;1.80;1.70;;;20.00;83.60;;;;;;5011571;28;20200;-68
2024/03/21 06:01:32;;;;;;;1.50;1.40;;;20.00;83.80;;;;;;5008539;28;20487;-66
2024/03/21 06:03:59;;;;;;;1.40;1.30;;;20.00;84.00;;;;;;5012031;28;20202;-71
2024/03/21 06:06:26;;;;;;;1.70;1.60;;;20.00;84.00;;;;;;5010817;28;20199;-69
2024/03/21 06:08:52;;;;;;;1.45;1.35;;;19.90;83.90;;;;;;5010825;28;21663;-70
2024/03/21 06:11:18;;;;;;;1.80;1.70;;;19.90;84.00;;;;;;5008888;28;20202;-67
2024/03/21 06:13:44;;;;;;;1.60;1.50;;;19.90;83.90;;;;;;5005407;28;20282;-66
2024/03/21 06:16:11;;;;;;;1.90;1.50;;;19.90;84.00;;;;;;5008440;28;20196;-65
2024/03/21 06:18:37;;;;;;;1.88;1.48;;;19.90;84.20;;;;;;5010065;28;20200;-70
2024/03/21 06:21:05;;;;;;;1.40;1.30;;;19.80;84.20;;;;;;5014165;28;20231;-68
2024/03/21 06:23:31;;;;;;;1.45;1.35;;;19.90;84.30;;;;;;5016013;28;20200;-68
2024/03/21 06:25:58;;;;;;;1.63;1.53;;;19.80;84.20;;;;;;5016547;28;20687;-71
2024/03/21 06:28:24;;;;;;;1.48;1.38;;;19.80;84.20;;;;;;5016598;28;20286;-69
2024/03/21 06:30:50;;;;;;;1.30;1.20;;;19.80;84.30;;;;;;5017111;28;20875;-69
2024/03/21 06:33:16;;;;;;;1.40;1.30;;;19.80;84.40;;;;;;5018571;28;20568;-68
2024/03/21 06:35:43;;;;;;;1.73;1.40;;;19.70;84.30;;;;;;5017722;28;20200;-69
2024/03/21 06:38:10;;;;;;;1.70;1.60;;;19.80;84.50;;;;;;5018490;28;20200;-67
2024/03/21 06:40:36;;;;;;;1.70;1.23;;;19.80;84.50;;;;;;5016658;28;20238;-68
2024/03/21 06:43:03;;;;;;;1.60;1.50;;;19.70;84.60;;;;;;5016601;28;20215;-66
2024/03/21 06:45:31;;;;;;;1.30;1.20;;;19.70;84.70;;;;;;5015106;28;20202;-66
2024/03/21 06:47:57;;;;;;;1.83;1.58;;;19.70;84.70;;;;;;5016651;28;20966;-69
2024/03/21 06:50:23;;;;;;;1.30;1.20;;;19.70;84.80;;;;;;5014328;28;20191;-69
2024/03/21 06:52:51;;;;;;;1.73;1.58;;;19.70;84.80;;;;;;5009967;28;20187;-69
2024/03/21 06:55:19;;;;;;;1.60;1.50;;;19.70;84.80;;;;;;5013068;28;20196;-68
2024/03/21 06:57:48;;;;;;;1.60;1.50;;;19.70;84.80;;;;;;5011502;28;20211;-70
2024/03/21 07:00:16;;;;;;;1.30;1.20;;;19.70;84.90;;;;;;5013958;28;20220;-66
2024/03/21 07:02:42;;;;;;;1.60;1.50;;;19.70;85.00;;;;;;5010913;28;20214;-65
2024/03/21 07:05:10;;;;;;;1.53;1.40;;;19.60;84.90;;;;;;5013040;28;20637;-67
2024/03/21 07:07:36;;;;;;;1.40;1.30;;;19.70;85.10;;;;;;5012209;28;20462;-70
2024/03/21 07:10:03;;;;;;;1.55;1.45;;;19.60;85.00;;;;;;5014068;28;20200;-70
2024/03/21 07:12:31;;;;;;;1.75;1.45;;;19.60;85.10;;;;;;5009964;28;20574;-68
2024/03/21 07:14:58;;;;;;;1.60;1.50;;;19.60;85.10;;;;;;5012998;28;20211;-68
2024/03/21 07:17:24;;;;;;;2.00;1.85;;;19.60;85.20;;;;;;5008303;28;20275;-71
2024/03/21 07:19:51;;;;;;;1.30;1.20;;;19.60;85.20;;;;;;5016424;28;20195;-66
2024/03/21 07:22:18;;;;;;;1.30;1.20;;;19.60;85.30;;;;;;5017313;28;20567;-69
2024/03/21 07:24:44;;;;;;;1.55;1.45;;;19.60;85.40;;;;;;5015658;28;20211;-67
2024/03/21 07:27:10;;;;;;;1.65;1.55;;;19.60;85.40;;;;;;5011595;28;20199;-70
2024/03/21 07:29:38;;;;;;;1.70;1.43;;;19.60;85.40;;;;;;5013403;28;20188;-70
2024/03/21 07:32:05;;;;;;;1.80;1.70;;;19.70;85.70;;;;;;5015213;28;20200;-69
2024/03/21 07:34:32;;;;;;;1.60;1.50;;;19.70;86.60;;;;;;5010978;28;20207;-67
2024/03/21 07:36:57;;;;;;;1.58;1.20;;;19.90;86.20;;;;;;5012395;28;20238;-69
2024/03/21 07:39:24;;;;;;;1.33;1.23;;;20.00;86.30;;;;;;5011957;28;20330;-70
2024/03/21 07:41:50;;;;;;;1.65;1.55;;;20.10;87.80;;;;;;5009274;28;20208;-67
2024/03/21 07:44:17;;;;;;;1.40;1.30;;;20.20;86.50;;;;;;5008553;28;20199;-71
2024/03/21 07:46:44;;;;;;;4.10;1.63;;;20.30;86.00;;;;;;5010494;28;20211;-73
2024/03/21 07:49:12;;;;;;;1.73;1.63;;;20.30;85.50;;;;;;5010363;28;20747;-71
2024/03/21 07:51:38;;;;;;;1.85;1.42;;;20.40;85.20;;;;;;5010999;28;20201;-69
2024/03/21 07:54:05;;;;;;;1.60;1.48;;;20.40;84.80;;;;;;5007685;28;20196;-72
2024/03/21 07:56:31;;;;;;;1.30;1.20;;;20.50;84.90;;;;;;5011090;28;20200;-68
2024/03/21 07:58:58;;;;;;;1.40;1.30;;;20.50;84.80;;;;;;5011094;28;20203;-68
2024/03/21 08:01:26;;;;;;;1.85;1.75;;;20.60;85.00;;;;;;5009442;28;20216;-68
2024/03/21 08:03:53;;;;;;;5.65;5.25;;;;;;;;;;5008182;28;20335;-73
2024/03/21 08:06:21;;;;;;;7.28;6.68;;;18.60;71.40;;;;;;5011666;28;20200;-72
2024/03/21 08:08:47;;;;;;;3.13;2.85;;;17.50;71.40;;;;;;5011020;28;20203;-70
2024/03/21 08:11:14;;;;;;;8.20;2.50;;;18.10;83.50;;;;;;5015898;28;20679;-70
2024/03/21 08:13:40;;;;;;;2.30;2.10;;;19.60;86.10;;;;;;5013068;28;20199;-69
2024/03/21 08:16:07;;;;;;;1.67;1.55;;;20.00;85.20;;;;;;5006619;28;20226;-71
2024/03/21 08:18:33;;;;;;;13.32;1.98;;;20.00;82.90;;;;;;5012494;28;20208;-71
2024/03/21 08:21:01;;;;;;;2.20;1.37;;;20.20;82.40;;;;;;5013418;28;20215;-67
2024/03/21 08:23:28;;;;;;;2.35;1.30;;;20.30;82.00;;;;;;5011793;28;20560;-69
2024/03/21 08:25:55;;;;;;;2.75;1.40;;;20.40;81.50;;;;;;5010701;28;20207;-71
2024/03/21 08:28:21;;;;;;;1.40;1.20;;;20.40;81.30;;;;;;5008466;28;20196;-68
2024/03/21 08:30:47;;;;;;;2.07;1.40;;;20.50;81.50;;;;;;5013730;28;20188;-70
2024/03/21 08:33:15;;;;;;;2.72;1.40;;;20.50;81.40;;;;;;5012947;28;20207;-70
2024/03/21 08:35:41;;;;;;;1.30;1.20;;;20.60;81.20;;;;;;5008351;28;20199;-69
2024/03/21 08:38:09;;;;;;;2.37;1.43;;;20.60;81.10;;;;;;5009011;28;20667;-67
2024/03/21 08:40:36;;;;;;;1.00;0.80;;;20.70;81.10;;;;;;5011096;28;20486;-72
2024/03/21 08:43:02;;;;;;;1.10;1.00;;;21.20;93.90;;;;;;5006703;28;20662;-72
2024/03/21 08:45:29;;;;;;;2.17;1.20;;;20.90;91.70;;;;;;5005416;28;20200;-70
2024/03/21 08:47:55;;;;;;;1.40;1.30;;;21.30;92.20;;;;;;5006229;28;20467;-71
2024/03/21 08:50:21;;;;;;;1.50;1.40;;;21.30;86.40;;;;;;5009415;28;20191;-71
2024/03/21 08:52:47;;;;;;;1.40;1.03;;;21.30;85.00;;;;;;5005814;28;20207;-71
2024/03/21 08:55:15;;;;;;;1.10;1.00;;;21.50;94.10;;;;;;5008998;28;20450;-71
2024/03/21 08:57:41;;;;;;;3.30;1.30;;;21.10;79.70;;;;;;5007085;28;21409;-73
2024/03/21 09:00:09;;;;;;;1.10;1.00;;;21.20;79.30;;;;;;5007826;28;20461;-72
2024/03/21 09:02:35;;;;;;;1.30;0.97;;;21.30;79.20;;;;;;5010917;28;20210;-69
2024/03/21 09:05:02;;;;;;;1.30;1.10;;;21.30;78.60;;;;;;5008953;28;20861;-73
2024/03/21 09:07:27;;;;;;;1.40;1.10;;;21.30;78.90;;;;;;5005978;28;20213;-72
2024/03/21 09:09:54;;;;;;;1.53;1.30;;;21.30;78.70;;;;;;5008992;28;21058;-70
2024/03/21 09:12:21;;;;;;;1.20;1.10;;;21.40;78.60;;;;;;5006327;28;20685;-69
2024/03/21 09:14:48;;;;;;;1.30;1.20;;;21.40;78.30;;;;;;5009275;28;20460;-70
2024/03/21 09:17:14;;;;;;;1.10;0.93;;;21.40;78.20;;;;;;5005944;28;20976;-68
2024/03/21 09:19:40;;;;;;;1.10;1.00;;;21.40;78.10;;;;;;5005766;28;20451;-68
2024/03/21 09:22:06;;;;;;;1.40;1.27;;;21.40;77.90;;;;;;5006989;28;20743;-71
2024/03/21 09:24:33;;;;;;;1.63;1.10;;;21.50;78.00;;;;;;5008663;28;20457;-73
2024/03/21 09:26:58;;;;;;;1.30;1.00;;;21.50;77.70;;;;;;5005782;28;20204;-73
2024/03/21 09:29:26;;;;;;;1.77;1.20;;;21.50;78.10;;;;;;5008000;28;20473;-71
2024/03/21 09:31:53;;;;;;;2.40;1.77;;;21.60;77.70;;;;;;5010105;28;20200;-69
2024/03/21 09:34:20;;;;;;;1.50;1.33;;;21.50;77.30;;;;;;5014093;28;20957;-68
2024/03/21 09:36:48;;;;;;;1.40;1.30;;;21.60;77.40;;;;;;5009002;28;20464;-69
2024/03/21 09:39:15;;;;;;;1.10;1.00;;;21.60;77.00;;;;;;5005402;28;20451;-74
2024/03/21 09:41:41;;;;;;;1.60;1.20;;;21.70;77.00;;;;;;5010213;28;20506;-71
2024/03/21 09:44:14;;;;;;;1.83;1.10;;;21.70;76.60;;;;;;5009988;28;22472;-71
2024/03/21 09:46:42;;;;;;;3.73;1.10;;;21.70;77.00;;;;;;5009085;28;20200;-68
2024/03/21 09:49:13;;;;;;;1.87;1.10;;;21.80;77.10;;;;;;5009322;28;20553;-69
2024/03/21 09:51:39;;;;;;;1.53;1.37;;;21.80;77.00;;;;;;5007091;28;20462;-73
2024/03/21 09:54:06;;;;;;;4.27;1.30;;;21.90;77.30;;;;;;5006796;28;20942;-71
2024/03/21 09:56:33;;;;;;;2.20;0.80;;;22.00;77.90;;;;;;5010445;28;20830;-72
2024/03/21 09:59:00;;;;;;;1.60;1.10;;;22.00;77.90;;;;;;5008661;28;20458;-70
2024/03/21 10:01:26;;;;;;;2.50;1.40;;;22.00;78.70;;;;;;5010282;28;20489;-69
2024/03/21 10:03:56;;;;;;;5.80;2.20;;;22.00;80.30;;;;;;5012602;28;20451;-71
2024/03/21 10:06:23;;;;;;;1.10;0.90;;;22.20;80.20;;;;;;5015568;28;20198;-72
2024/03/21 10:08:50;;;;;;;1.83;1.10;;;22.20;80.70;;;;;;5010111;28;20869;-68
2024/03/21 10:11:16;;;;;;;3.50;1.30;;;22.20;81.30;;;;;;5010304;28;20451;-69
2024/03/21 10:13:43;;;;;;;1.83;1.37;;;22.20;81.60;;;;;;5008877;28;20470;-71
2024/03/21 10:16:11;;;;;;;1.53;1.13;;;22.20;82.00;;;;;;5010581;28;20458;-73
2024/03/21 10:18:39;;;;;;;5.93;1.30;;;22.30;82.60;;;;;;5008928;28;20457;-71
2024/03/21 10:21:12;;;;;;;1.73;1.23;;;22.30;83.70;;;;;;5008673;28;20482;-71
2024/03/21 10:23:39;;;;;;;1.83;1.00;;;22.30;83.80;;;;;;5012826;28;20459;-70
2024/03/21 10:26:13;;;;;;;1.10;0.90;;;22.40;84.30;;;;;;5015313;28;21007;-75
2024/03/21 10:28:40;;;;;;;3.23;1.23;;;22.40;84.20;;;;;;5015482;28;21025;-70
2024/03/21 10:31:11;;;;;;;1.93;1.30;;;22.40;84.60;;;;;;5014112;28;20467;-68
2024/03/21 10:33:38;;;;;;;2.03;1.30;;;22.50;85.00;;;;;;5015585;28;20450;-70
2024/03/21 10:36:05;;;;;;;3.17;1.20;;;22.50;85.20;;;;;;5014447;28;20956;-68
2024/03/21 10:38:33;;;;;;;8.10;1.70;;;22.50;84.90;;;;;;5015467;28;20458;-68
2024/03/21 10:41:03;;;;;;;1.87;1.40;;;22.50;86.20;;;;;;5014565;28;20492;-71
2024/03/21 10:43:33;;;;;;;4.80;1.60;;;22.50;87.10;;;;;;5016308;28;20450;-70
2024/03/21 10:46:01;;;;;;;5.00;1.60;;;22.60;87.20;;;;;;5011297;28;20533;-72
2024/03/21 10:48:30;;;;;;;4.93;1.90;;;22.60;86.70;;;;;;5007351;28;20454;-72
2024/03/21 10:50:56;;;;;;;4.13;3.33;;;22.60;87.10;;;;;;5008409;28;20941;-73
2024/03/21 10:53:24;;;;;;;9.33;4.53;;;22.10;68.30;;;;;;5004714;28;20458;-75
2024/03/21 10:55:52;;;;;;;7.70;1.97;;;20.30;79.80;;;;;;5011420;28;20504;-69
2024/03/21 10:58:20;;;;;;;2.40;1.90;;;21.40;84.60;;;;;;5014916;28;20491;-69
2024/03/21 11:00:50;;;;;;;1.63;1.27;;;22.00;84.00;;;;;;5010854;28;21011;-69
2024/03/21 11:03:17;;;;;;;2.73;1.60;;;22.20;83.20;;;;;;5005787;28;20821;-69
2024/03/21 11:05:46;;;;;;;3.13;1.43;;;22.30;83.50;;;;;;5002554;28;20965;-71
2024/03/21 11:08:27;;;;;;;1.87;1.30;;;22.40;83.70;;;;;;5004372;28;20455;-72
2024/03/21 11:10:55;;;;;;;2.73;1.67;;;22.40;83.90;;;;;;5011128;28;20463;-72
2024/03/21 11:13:24;;;;;;;3.30;1.77;;;22.40;84.50;;;;;;5014983;28;20982;-70
2024/03/21 11:15:51;;;;;;;3.03;1.23;;;22.40;84.80;;;;;;5014857;28;20457;-68
2024/03/21 11:18:18;;;;;;;2.50;1.63;;;22.40;85.40;;;;;;5011026;28;20454;-71
2024/03/21 11:20:44;;;;;;;3.07;1.70;;;22.50;84.80;;;;;;5014074;28;20466;-69
2024/03/21 11:23:13;;;;;;;2.00;1.60;;;22.50;84.90;;;;;;5014731;28;20456;-70
2024/03/21 11:25:39;;;;;;;2.17;1.13;;;22.50;84.80;;;;;;5014924;28;20471;-69
2024/03/21 11:28:12;;;;;;;2.27;1.30;;;22.50;85.20;;;;;;5018870;28;20802;-68
2024/03/21 11:30:42;;;;;;;2.17;1.53;;;22.50;84.60;;;;;;5013575;28;20459;-70
2024/03/21 11:33:09;;;;;;;4.70;1.47;;;22.50;84.50;;;;;;5015774;28;20462;-72
2024/03/21 11:35:37;;;;;;;3.53;1.40;;;22.60;84.30;;;;;;5012854;28;20458;-71
2024/03/21 11:38:05;;;;;;;2.00;1.50;;;22.60;84.80;;;;;;5013106;28;20503;-71
2024/03/21 11:40:32;;;;;;;2.00;1.30;;;22.60;84.40;;;;;;5014548;28;21029;-69
2024/03/21 11:43:02;;;;;;;1.50;1.10;;;22.60;84.30;;;;;;5016699;28;20539;-69
2024/03/21 11:45:30;;;;;;;3.70;1.40;;;22.60;84.20;;;;;;5016042;28;20454;-69
2024/03/21 11:48:06;;;;;;;2.27;1.20;;;22.60;84.30;;;;;;5011455;28;20470;-70
2024/03/21 11:50:33;;;;;;;1.43;1.30;;;22.60;84.00;;;;;;5014729;28;20446;-70
2024/03/21 11:52:59;;;;;;;1.97;1.33;;;22.60;84.20;;;;;;5012056;28;20482;-71
2024/03/21 11:55:25;;;;;;;1.60;1.10;;;22.60;84.30;;;;;;5012317;28;20451;-78
2024/03/21 11:57:54;;;;;;;2.60;1.30;;;22.60;84.30;;;;;;5007236;28;20557;-76
2024/03/21 12:00:20;;;;;;;5.13;3.80;;;22.60;82.60;;;;;;5004867;28;20450;-76
2024/03/21 12:02:48;;;;;;;3.67;2.70;;;21.20;59.30;;;;;;5008459;28;20937;-70
2024/03/21 12:05:14;;;;;;;3.17;2.88;;;19.80;59.60;;;;;;5009329;28;20974;-74
2024/03/21 12:07:42;;;;;;;4.50;1.63;;;20.80;76.30;;;;;;5006995;28;20200;-71
2024/03/21 12:10:09;;;;;;;1.80;1.23;;;21.60;76.50;;;;;;5006501;28;20203;-72
2024/03/21 12:12:35;;;;;;;2.80;1.73;;;22.00;76.70;;;;;;5006208;28;20485;-72
2024/03/21 12:15:01;;;;;;;2.17;1.20;;;22.10;76.80;;;;;;5007555;28;20454;-71
2024/03/21 12:17:28;;;;;;;3.60;1.30;;;22.20;77.10;;;;;;5003809;28;20453;-70
2024/03/21 12:19:55;;;;;;;1.43;1.23;;;22.20;77.30;;;;;;5007979;28;20486;-71
2024/03/21 12:22:22;;;;;;;2.07;1.30;;;22.20;77.40;;;;;;5003881;28;20512;-72
2024/03/21 12:24:48;;;;;;;1.10;1.00;;;22.30;77.80;;;;;;5007844;28;20562;-71
2024/03/21 12:27:15;;;;;;;1.30;1.00;;;22.30;77.90;;;;;;5009266;28;20454;-74
2024/03/21 12:29:41;;;;;;;2.03;1.33;;;22.20;77.90;;;;;;5008042;28;20199;-73
2024/03/21 12:32:09;;;;;;;2.50;1.43;;;22.30;78.10;;;;;;4998992;28;20957;-70
2024/03/21 12:34:35;;;;;;;2.63;1.20;;;22.30;78.20;;;;;;5005738;28;20467;-73
2024/03/21 12:37:04;;;;;;;9.47;1.93;;;22.30;78.20;;;;;;5006811;28;20455;-75
2024/03/21 12:39:29;;;;;;;1.73;1.20;;;22.30;78.30;;;;;;5008361;28;20496;-74
2024/03/21 12:41:56;;;;;;;2.87;1.50;;;22.30;78.40;;;;;;5010743;28;22474;-72
2024/03/21 12:44:22;;;;;;;2.20;1.40;;;22.30;78.40;;;;;;5009843;28;20470;-72
2024/03/21 12:46:48;;;;;;;3.40;1.33;;;22.30;78.50;;;;;;5006014;28;20721;-72
2024/03/21 12:49:14;;;;;;;1.77;1.20;;;22.30;78.50;;;;;;5008761;28;20208;-75